Time;durP1;ratioP1;P1;durP2;ratioP2;P2;SDS_P1;SDS_P2;PMS_P1;PMS_P2;Temp;Humidity;BMP_temperature;BMP_pressure;BME280_temperature;BME280_humidity;BME280_pressure;Samples;Min_cycle;Max_cycle;Signal;HPM_P1;HPM_P2
2023/08/16 00:00:08;;;;;;;2.70;1.80;;;22.20;99.90;;;;;;5013706;28;20506;-41
2023/08/16 00:02:34;;;;;;;1.73;1.45;;;22.20;99.90;;;;;;5013803;28;20040;-41
2023/08/16 00:05:00;;;;;;;2.30;1.80;;;22.30;99.90;;;;;;5013788;28;20022;-38
2023/08/16 00:07:25;;;;;;;1.77;1.50;;;22.20;99.90;;;;;;5013848;28;20383;-40
2023/08/16 00:09:54;;;;;;;1.85;1.50;;;22.20;99.90;;;;;;5013427;28;20037;-40
2023/08/16 00:12:19;;;;;;;4.00;1.48;;;22.20;99.90;;;;;;5013712;28;20034;-43
2023/08/16 00:14:45;;;;;;;2.65;1.40;;;22.20;99.90;;;;;;5013704;28;20548;-40
2023/08/16 00:17:11;;;;;;;1.92;1.35;;;22.20;99.90;;;;;;5013910;28;20383;-40
2023/08/16 00:19:38;;;;;;;2.60;1.88;;;22.20;99.90;;;;;;5013157;28;20395;-40
2023/08/16 00:22:04;;;;;;;2.25;1.52;;;22.20;99.90;;;;;;5013194;28;20101;-41
2023/08/16 00:24:29;;;;;;;3.67;1.77;;;22.20;99.90;;;;;;5013289;28;20045;-40
2023/08/16 00:26:55;;;;;;;3.55;1.70;;;22.20;99.90;;;;;;5013464;28;20475;-42
2023/08/16 00:29:21;;;;;;;2.00;1.60;;;22.20;99.90;;;;;;5013044;28;20120;-41
2023/08/16 00:31:46;;;;;;;1.58;1.40;;;22.20;99.90;;;;;;5013384;28;20469;-40
2023/08/16 00:34:12;;;;;;;2.72;1.75;;;22.20;99.90;;;;;;5013234;28;20029;-44
2023/08/16 00:36:37;;;;;;;1.77;1.35;;;22.20;99.90;;;;;;5013296;28;20026;-37
2023/08/16 00:39:03;;;;;;;3.75;1.70;;;22.20;99.90;;;;;;5013024;28;20096;-44
2023/08/16 00:41:29;;;;;;;2.75;1.60;;;22.20;99.90;;;;;;5013343;28;20113;-41
2023/08/16 00:43:54;;;;;;;2.58;1.70;;;22.20;99.90;;;;;;5013119;28;20026;-40
2023/08/16 00:46:21;;;;;;;2.22;1.60;;;22.20;99.90;;;;;;5013265;28;20022;-39
2023/08/16 00:48:46;;;;;;;3.05;1.60;;;22.20;99.90;;;;;;5012907;28;20084;-41
2023/08/16 00:51:13;;;;;;;2.47;1.60;;;22.20;99.90;;;;;;5013416;28;20346;-40
2023/08/16 00:53:40;;;;;;;1.92;1.30;;;22.20;99.90;;;;;;5012828;28;20468;-40
2023/08/16 00:56:06;;;;;;;3.00;1.80;;;22.20;99.90;;;;;;5012924;28;20056;-41
2023/08/16 00:58:32;;;;;;;1.63;1.45;;;22.20;99.90;;;;;;5013046;28;20499;-41
2023/08/16 01:00:58;;;;;;;3.42;1.52;;;22.20;99.90;;;;;;5012573;28;20030;-42
2023/08/16 01:03:24;;;;;;;1.50;1.38;;;22.20;99.90;;;;;;5012858;28;20033;-42
2023/08/16 01:05:50;;;;;;;1.83;1.52;;;22.20;99.90;;;;;;5012783;28;20022;-40
2023/08/16 01:08:16;;;;;;;1.98;1.40;;;22.20;99.90;;;;;;5012658;28;20022;-41
2023/08/16 01:10:57;;;;;;;4.18;1.60;;;22.20;99.90;;;;;;5012438;28;20053;-41
2023/08/16 01:13:33;;;;;;;2.38;1.88;;;22.20;99.90;;;;;;5012602;28;20029;-40
2023/08/16 01:16:01;;;;;;;2.50;1.52;;;22.20;99.90;;;;;;5012787;28;20030;-41
2023/08/16 01:18:29;;;;;;;4.85;1.65;;;22.20;99.90;;;;;;5012457;28;20040;-40
2023/08/16 01:20:55;;;;;;;2.55;1.60;;;22.20;99.90;;;;;;5012101;28;20056;-39
2023/08/16 01:23:46;;;;;;;2.67;1.70;;;22.10;99.90;;;;;;5012337;28;20033;-39
2023/08/16 01:26:20;;;;;;;1.40;1.20;;;22.10;99.90;;;;;;5012461;28;20022;-41
2023/08/16 01:28:47;;;;;;;2.35;1.65;;;22.20;99.90;;;;;;5012279;28;20029;-44
2023/08/16 01:31:13;;;;;;;2.05;1.65;;;22.10;99.90;;;;;;5012547;28;20038;-40
2023/08/16 01:33:39;;;;;;;2.90;1.63;;;22.20;99.90;;;;;;5011564;28;20519;-42
2023/08/16 01:36:04;;;;;;;2.63;1.52;;;22.10;99.90;;;;;;5012238;28;20055;-41
2023/08/16 01:38:30;;;;;;;2.80;1.65;;;22.20;99.90;;;;;;5012748;28;20025;-44
2023/08/16 01:41:35;;;;;;;6.30;1.60;;;22.10;99.90;;;;;;5012320;28;20160;-44
2023/08/16 01:44:01;;;;;;;2.10;1.40;;;22.10;99.90;;;;;;5000152;28;20117;-40
2023/08/16 01:46:29;;;;;;;2.10;1.70;;;22.10;99.90;;;;;;5012016;28;20022;-41
2023/08/16 01:48:56;;;;;;;3.05;1.70;;;22.10;99.90;;;;;;5011739;28;20034;-40
2023/08/16 01:51:23;;;;;;;1.92;1.50;;;22.10;99.90;;;;;;5011946;28;20038;-43
2023/08/16 01:53:52;;;;;;;1.88;1.65;;;22.10;99.90;;;;;;5012370;28;20022;-40
2023/08/16 01:56:18;;;;;;;3.03;1.70;;;22.10;99.90;;;;;;5011789;28;20077;-40
2023/08/16 01:58:44;;;;;;;3.63;1.63;;;22.10;99.90;;;;;;5011923;28;20049;-42
2023/08/16 02:01:10;;;;;;;2.38;1.40;;;22.10;99.90;;;;;;5011658;28;20466;-40
2023/08/16 02:03:35;;;;;;;3.30;1.70;;;22.10;99.90;;;;;;5011782;28;20057;-44
2023/08/16 02:06:01;;;;;;;1.90;1.38;;;22.10;99.90;;;;;;5011831;28;20026;-40
2023/08/16 02:08:26;;;;;;;1.85;1.52;;;22.10;99.90;;;;;;5011778;28;20384;-38
2023/08/16 02:10:53;;;;;;;2.10;1.48;;;22.10;99.90;;;;;;5011342;28;20399;-41
2023/08/16 02:13:19;;;;;;;2.28;1.60;;;22.10;99.90;;;;;;5011695;28;20061;-41
2023/08/16 02:15:44;;;;;;;2.08;1.65;;;22.10;99.90;;;;;;5011824;28;20448;-41
2023/08/16 02:18:13;;;;;;;2.10;1.83;;;22.10;99.90;;;;;;5011659;28;20100;-37
2023/08/16 02:20:39;;;;;;;2.80;1.50;;;22.10;99.90;;;;;;5011332;28;20034;-42
2023/08/16 02:23:08;;;;;;;2.22;1.58;;;22.10;99.90;;;;;;5011324;28;20030;-42
2023/08/16 02:25:34;;;;;;;1.90;1.52;;;22.10;99.90;;;;;;5011578;28;20028;-37
2023/08/16 02:28:00;;;;;;;1.65;1.55;;;22.10;99.90;;;;;;5011584;28;20018;-40
2023/08/16 02:30:26;;;;;;;1.98;1.50;;;22.10;99.90;;;;;;5011184;28;20419;-37
2023/08/16 02:32:54;;;;;;;3.50;1.50;;;22.10;99.90;;;;;;5011392;28;20033;-39
2023/08/16 02:35:20;;;;;;;3.25;1.75;;;22.10;99.90;;;;;;5011602;28;20022;-37
2023/08/16 02:37:46;;;;;;;1.95;1.50;;;22.10;99.90;;;;;;5011338;28;20030;-41
2023/08/16 02:40:12;;;;;;;2.58;1.45;;;22.10;99.90;;;;;;5011323;28;20088;-41
2023/08/16 02:42:38;;;;;;;1.73;1.42;;;22.10;99.90;;;;;;5011775;28;20041;-42
2023/08/16 02:45:04;;;;;;;3.28;1.40;;;22.10;99.90;;;;;;5013076;28;20022;-40
2023/08/16 02:47:30;;;;;;;2.90;1.27;;;22.10;99.90;;;;;;5015692;28;20105;-40
2023/08/16 02:49:55;;;;;;;2.92;1.40;;;22.10;99.90;;;;;;5015066;28;20093;-40
2023/08/16 02:52:21;;;;;;;2.03;1.60;;;22.10;99.90;;;;;;5015065;28;20030;-40
2023/08/16 02:54:47;;;;;;;3.72;1.50;;;22.10;99.90;;;;;;5015378;28;20544;-41
2023/08/16 02:57:13;;;;;;;2.03;1.50;;;22.10;99.90;;;;;;5015192;28;20485;-39
2023/08/16 02:59:47;;;;;;;5.28;1.50;;;22.10;99.90;;;;;;5014839;28;20514;-39
2023/08/16 03:02:15;;;;;;;1.50;1.40;;;22.00;99.90;;;;;;5015066;28;20117;-37
2023/08/16 03:04:41;;;;;;;2.03;1.52;;;22.10;99.90;;;;;;5014968;28;20062;-39
2023/08/16 03:07:11;;;;;;;2.70;1.85;;;22.00;99.90;;;;;;5014838;28;20069;-40
2023/08/16 03:09:38;;;;;;;1.80;1.48;;;22.10;99.90;;;;;;5014650;28;20022;-40
2023/08/16 03:12:04;;;;;;;2.03;1.65;;;22.00;99.90;;;;;;5014919;28;20034;-41
2023/08/16 03:14:30;;;;;;;1.50;1.40;;;22.00;99.90;;;;;;5014855;28;20423;-40
2023/08/16 03:16:59;;;;;;;1.77;1.60;;;22.00;99.90;;;;;;5014701;28;20113;-36
2023/08/16 03:19:26;;;;;;;2.75;1.58;;;22.00;99.90;;;;;;5014291;28;20030;-42
2023/08/16 03:21:53;;;;;;;3.05;1.48;;;22.00;99.90;;;;;;5014662;28;20414;-40
2023/08/16 03:24:19;;;;;;;1.70;1.30;;;22.10;99.90;;;;;;5014738;28;20080;-40
2023/08/16 03:26:44;;;;;;;1.77;1.30;;;22.00;99.90;;;;;;5015754;28;20443;-41
2023/08/16 03:29:10;;;;;;;1.60;1.48;;;22.00;99.90;;;;;;5014296;28;20027;-41
2023/08/16 03:31:37;;;;;;;5.03;1.70;;;22.00;99.90;;;;;;5014720;28;20491;-41
2023/08/16 03:34:03;;;;;;;1.75;1.33;;;22.00;99.90;;;;;;5014351;28;20018;-38
2023/08/16 03:36:28;;;;;;;2.28;1.40;;;22.00;99.90;;;;;;5014511;28;20049;-43
2023/08/16 03:38:54;;;;;;;2.20;1.60;;;22.00;99.90;;;;;;5014184;28;20037;-40
2023/08/16 03:41:19;;;;;;;3.20;1.42;;;22.00;99.90;;;;;;5014310;28;20026;-39
2023/08/16 03:43:45;;;;;;;3.03;1.42;;;22.00;99.90;;;;;;5014413;28;20109;-40
2023/08/16 03:46:10;;;;;;;3.45;1.45;;;22.00;99.90;;;;;;5014867;28;20022;-40
2023/08/16 03:48:36;;;;;;;1.42;1.20;;;22.00;99.90;;;;;;5014230;28;20030;-40
2023/08/16 03:51:02;;;;;;;3.25;1.40;;;22.00;99.90;;;;;;5014112;28;20022;-42
2023/08/16 03:53:28;;;;;;;3.50;1.35;;;22.00;99.90;;;;;;5013888;28;20048;-37
2023/08/16 03:55:58;;;;;;;1.42;1.33;;;22.00;99.90;;;;;;4996327;28;20554;-41
2023/08/16 03:58:24;;;;;;;4.70;1.50;;;22.00;99.90;;;;;;5013891;28;20034;-39
2023/08/16 04:00:53;;;;;;;6.50;1.40;;;22.00;99.90;;;;;;4995960;28;20125;-40
2023/08/16 04:03:20;;;;;;;1.90;1.50;;;22.00;99.90;;;;;;5013723;28;20026;-41
2023/08/16 04:05:46;;;;;;;2.58;1.40;;;22.00;99.90;;;;;;4996957;28;20040;-41
2023/08/16 04:08:12;;;;;;;2.97;1.50;;;21.90;99.90;;;;;;5014046;28;20349;-39
2023/08/16 04:10:38;;;;;;;6.25;1.50;;;22.00;99.90;;;;;;5013826;28;20022;-41
2023/08/16 04:13:04;;;;;;;1.80;1.50;;;21.90;99.90;;;;;;5013754;28;20388;-40
2023/08/16 04:15:30;;;;;;;1.45;1.20;;;21.90;99.90;;;;;;5013704;28;20022;-40
2023/08/16 04:17:56;;;;;;;2.45;1.58;;;21.90;99.90;;;;;;5013507;28;20029;-40
2023/08/16 04:20:22;;;;;;;1.73;1.42;;;21.90;99.90;;;;;;5013397;28;20026;-43
2023/08/16 04:22:48;;;;;;;3.15;1.50;;;21.90;99.90;;;;;;5013663;28;20037;-38
2023/08/16 04:25:14;;;;;;;1.83;1.30;;;21.90;99.90;;;;;;5013607;28;20034;-43
2023/08/16 04:27:40;;;;;;;2.00;1.40;;;22.00;99.90;;;;;;5013500;28;20053;-40
2023/08/16 04:30:07;;;;;;;1.85;1.58;;;21.90;99.90;;;;;;5012935;28;20030;-41
2023/08/16 04:32:32;;;;;;;3.10;1.33;;;21.90;99.90;;;;;;5013751;28;20105;-36
2023/08/16 04:34:58;;;;;;;1.95;1.30;;;21.90;99.90;;;;;;5013283;28;20543;-39
2023/08/16 04:37:24;;;;;;;1.58;1.30;;;21.90;99.90;;;;;;5013675;28;20064;-40
2023/08/16 04:39:49;;;;;;;1.88;1.30;;;21.90;99.90;;;;;;5012988;28;20526;-41
2023/08/16 04:42:15;;;;;;;1.65;1.52;;;21.90;99.90;;;;;;5013234;28;20026;-38
2023/08/16 04:44:42;;;;;;;1.60;1.40;;;21.90;99.90;;;;;;5013080;28;20030;-40
2023/08/16 04:47:08;;;;;;;3.65;2.20;;;21.90;99.90;;;;;;5012968;28;20028;-36
2023/08/16 04:49:33;;;;;;;5.55;2.47;;;21.80;99.90;;;;;;5012747;28;20038;-39
2023/08/16 04:51:59;;;;;;;6.03;2.03;;;21.30;99.90;;;;;;5013039;28;20025;-40
2023/08/16 04:54:25;;;;;;;4.43;1.95;;;21.20;99.90;;;;;;5013111;28;20067;-42
2023/08/16 04:56:50;;;;;;;4.30;2.00;;;21.30;99.90;;;;;;5012938;28;20113;-42
2023/08/16 04:59:16;;;;;;;5.45;2.17;;;21.40;99.90;;;;;;5012610;28;20076;-41
2023/08/16 05:01:43;;;;;;;3.55;1.90;;;21.40;99.90;;;;;;5012934;28;20026;-41
2023/08/16 05:04:09;;;;;;;5.55;1.83;;;21.50;99.90;;;;;;5012792;28;20117;-45
2023/08/16 05:06:36;;;;;;;4.70;2.10;;;21.50;99.90;;;;;;5012691;28;20018;-44
2023/08/16 05:09:02;;;;;;;4.00;2.00;;;21.50;99.90;;;;;;5011432;28;20034;-40
2023/08/16 05:11:28;;;;;;;6.40;1.60;;;21.60;99.90;;;;;;5013051;28;20014;-44
2023/08/16 05:13:54;;;;;;;4.00;1.85;;;21.60;99.90;;;;;;5012476;28;20022;-42
2023/08/16 05:16:20;;;;;;;12.57;2.17;;;21.60;99.90;;;;;;5012494;28;20034;-41
2023/08/16 05:18:45;;;;;;;2.38;1.70;;;21.60;99.90;;;;;;5012385;28;20026;-39
2023/08/16 05:21:11;;;;;;;2.63;2.05;;;21.70;99.90;;;;;;5012310;28;20064;-42
2023/08/16 05:23:37;;;;;;;5.57;1.70;;;21.70;99.90;;;;;;5012436;28;20059;-40
2023/08/16 05:26:02;;;;;;;4.47;1.85;;;21.70;99.90;;;;;;5012646;28;20088;-38
2023/08/16 05:28:28;;;;;;;2.58;1.77;;;21.70;99.90;;;;;;5012473;28;20026;-43
2023/08/16 05:30:54;;;;;;;2.72;1.50;;;21.80;99.90;;;;;;5012016;28;20243;-46
2023/08/16 05:33:19;;;;;;;3.50;1.60;;;21.80;99.90;;;;;;5012242;28;20109;-41
2023/08/16 05:35:45;;;;;;;2.90;1.52;;;21.80;99.90;;;;;;5012225;28;20053;-39
2023/08/16 05:38:10;;;;;;;2.35;1.63;;;21.80;99.90;;;;;;4994605;28;20113;-41
2023/08/16 05:40:36;;;;;;;2.92;1.60;;;21.80;99.90;;;;;;5011895;28;20018;-40
2023/08/16 05:43:02;;;;;;;4.28;1.40;;;21.80;99.90;;;;;;5012058;28;20029;-41
2023/08/16 05:45:29;;;;;;;3.47;1.67;;;21.80;99.90;;;;;;5011943;28;20030;-42
2023/08/16 05:47:56;;;;;;;3.60;1.80;;;21.80;99.90;;;;;;5012085;28;20018;-40
2023/08/16 05:50:22;;;;;;;3.00;1.40;;;21.80;99.90;;;;;;5011774;28;20027;-46
2023/08/16 05:52:48;;;;;;;3.10;1.50;;;21.80;99.90;;;;;;5012059;28;20053;-42
2023/08/16 05:55:14;;;;;;;3.25;1.73;;;21.80;99.90;;;;;;5011989;28;20129;-40
2023/08/16 05:57:40;;;;;;;3.30;1.70;;;21.80;99.90;;;;;;5011766;28;20479;-43
2023/08/16 06:00:06;;;;;;;2.72;1.70;;;21.80;99.90;;;;;;5011567;28;20040;-40
2023/08/16 06:02:32;;;;;;;2.10;1.52;;;21.80;99.90;;;;;;5011788;28;20080;-41
2023/08/16 06:04:59;;;;;;;1.73;1.50;;;21.80;99.90;;;;;;5011935;28;20029;-41
2023/08/16 06:07:25;;;;;;;3.70;1.58;;;21.80;99.90;;;;;;5011908;28;20025;-40
2023/08/16 06:09:51;;;;;;;3.13;1.63;;;21.90;99.90;;;;;;5011484;28;20037;-46
2023/08/16 06:12:17;;;;;;;1.55;1.42;;;21.90;99.90;;;;;;5011646;28;20037;-41
2023/08/16 06:14:43;;;;;;;1.52;1.42;;;21.80;99.90;;;;;;5012394;28;20041;-43
2023/08/16 06:17:09;;;;;;;1.95;1.40;;;21.90;99.90;;;;;;5012848;28;20026;-40
2023/08/16 06:19:35;;;;;;;4.18;1.67;;;21.90;99.90;;;;;;5012296;28;20037;-40
2023/08/16 06:22:00;;;;;;;1.92;1.40;;;21.90;99.90;;;;;;4994414;28;20033;-39
2023/08/16 06:24:26;;;;;;;1.90;1.67;;;21.90;99.90;;;;;;5011733;28;20026;-39
2023/08/16 06:26:52;;;;;;;3.15;1.60;;;21.90;99.90;;;;;;5011441;28;20018;-39
2023/08/16 06:29:17;;;;;;;2.33;1.35;;;21.90;99.90;;;;;;5011305;28;20701;-39
2023/08/16 06:31:43;;;;;;;3.70;1.45;;;21.90;99.90;;;;;;5011547;28;20057;-40
2023/08/16 06:34:08;;;;;;;3.63;1.50;;;21.90;99.90;;;;;;5011487;28;20033;-41
2023/08/16 06:36:34;;;;;;;3.92;1.50;;;21.90;99.90;;;;;;5011519;28;20057;-39
2023/08/16 06:39:00;;;;;;;2.33;1.67;;;21.90;99.90;;;;;;5010819;28;20482;-39
2023/08/16 06:41:26;;;;;;;8.15;2.92;;;21.90;99.90;;;;;;5009974;28;20029;-39
2023/08/16 06:43:51;;;;;;;5.65;2.78;;;21.80;99.90;;;;;;5011250;28;20029;-40
2023/08/16 06:46:17;;;;;;;7.28;2.70;;;21.70;99.90;;;;;;5011308;28;20029;-39
2023/08/16 06:48:43;;;;;;;4.40;2.42;;;21.80;99.90;;;;;;5011243;28;20116;-39
2023/08/16 06:51:08;;;;;;;6.10;2.15;;;21.80;99.90;;;;;;5011182;28;20021;-40
2023/08/16 06:53:38;;;;;;;3.50;2.30;;;21.80;99.90;;;;;;5011323;28;20476;-40
2023/08/16 06:56:04;;;;;;;3.45;2.30;;;21.80;99.90;;;;;;5011226;28;20037;-39
2023/08/16 06:58:30;;;;;;;4.88;2.30;;;21.80;99.90;;;;;;5011253;28;20026;-39
2023/08/16 07:00:56;;;;;;;6.60;2.13;;;21.80;99.90;;;;;;5010948;28;20080;-41
2023/08/16 07:03:22;;;;;;;9.55;2.58;;;21.90;99.90;;;;;;5011135;28;20506;-42
2023/08/16 07:05:48;;;;;;;3.75;2.00;;;21.90;99.90;;;;;;5011192;28;20034;-40
2023/08/16 07:08:13;;;;;;;3.42;2.17;;;21.90;99.90;;;;;;5011565;28;20033;-39
2023/08/16 07:10:41;;;;;;;4.82;2.60;;;21.90;99.90;;;;;;5010636;28;20037;-39
2023/08/16 07:13:07;;;;;;;5.57;2.53;;;21.90;99.90;;;;;;5011042;28;20026;-41
2023/08/16 07:15:33;;;;;;;6.60;2.65;;;21.90;99.90;;;;;;5011090;28;20030;-39
2023/08/16 07:17:59;;;;;;;4.07;2.47;;;21.90;99.90;;;;;;5011054;28;20041;-40
2023/08/16 07:20:25;;;;;;;6.45;2.10;;;21.90;99.90;;;;;;5010751;28;20018;-39
2023/08/16 07:22:50;;;;;;;5.07;2.10;;;21.90;99.90;;;;;;5010959;28;20403;-44
2023/08/16 07:25:16;;;;;;;12.27;2.70;;;21.90;99.90;;;;;;5010865;28;20472;-40
2023/08/16 07:27:42;;;;;;;7.80;2.90;;;21.90;99.90;;;;;;5011216;28;20042;-38
2023/08/16 07:30:07;;;;;;;8.15;2.70;;;21.90;99.90;;;;;;5011096;28;20072;-41
2023/08/16 07:32:33;;;;;;;9.05;2.60;;;21.90;99.90;;;;;;5013239;28;20025;-41
2023/08/16 07:34:59;;;;;;;5.93;2.05;;;21.90;99.90;;;;;;5014703;28;20030;-40
2023/08/16 07:37:31;;;;;;;6.50;2.30;;;21.90;99.90;;;;;;5014446;28;20033;-40
2023/08/16 07:39:58;;;;;;;4.82;2.72;;;21.90;99.90;;;;;;5013955;28;20032;-41
2023/08/16 07:42:23;;;;;;;4.88;2.33;;;21.90;99.90;;;;;;5014258;28;20053;-41
2023/08/16 07:44:49;;;;;;;4.95;2.50;;;22.00;99.90;;;;;;5014254;28;20480;-37
2023/08/16 07:47:15;;;;;;;3.17;2.22;;;22.00;99.90;;;;;;5014607;28;20073;-42
2023/08/16 07:49:41;;;;;;;2.47;1.88;;;22.00;99.90;;;;;;5013882;28;20070;-37
2023/08/16 07:52:07;;;;;;;6.50;2.40;;;21.90;99.90;;;;;;5014115;28;20037;-38
2023/08/16 07:54:32;;;;;;;4.93;2.05;;;22.00;99.90;;;;;;5013952;28;20026;-38
2023/08/16 07:56:58;;;;;;;2.65;1.85;;;22.00;99.90;;;;;;5014110;28;20080;-36
2023/08/16 07:59:24;;;;;;;2.50;1.73;;;22.00;99.90;;;;;;5014005;28;20184;-40
2023/08/16 08:01:51;;;;;;;4.40;1.95;;;22.00;99.90;;;;;;5013966;28;20475;-37
2023/08/16 08:04:18;;;;;;;2.97;2.10;;;22.00;99.90;;;;;;5013888;28;20025;-37
2023/08/16 08:06:44;;;;;;;4.45;2.17;;;22.00;99.90;;;;;;5014374;28;20025;-44
2023/08/16 08:09:09;;;;;;;4.43;2.10;;;22.00;99.90;;;;;;5013463;28;20029;-37
2023/08/16 08:11:37;;;;;;;4.05;1.90;;;22.00;99.90;;;;;;5013886;28;20387;-40
2023/08/16 08:14:03;;;;;;;3.55;2.15;;;22.00;99.90;;;;;;5013816;28;20435;-42
2023/08/16 08:16:28;;;;;;;2.60;1.90;;;22.00;99.90;;;;;;5013760;28;20022;-41
2023/08/16 08:18:54;;;;;;;2.03;1.48;;;22.00;99.90;;;;;;5013568;28;20101;-38
2023/08/16 08:21:19;;;;;;;3.28;1.83;;;22.00;99.90;;;;;;5013614;28;20046;-40
2023/08/16 08:23:45;;;;;;;3.22;1.80;;;22.00;99.90;;;;;;5013309;28;20395;-36
2023/08/16 08:26:11;;;;;;;2.95;1.80;;;22.00;99.90;;;;;;5013534;28;20018;-38
2023/08/16 08:28:36;;;;;;;3.70;2.08;;;22.00;99.90;;;;;;5013429;28;20484;-41
2023/08/16 08:31:03;;;;;;;3.40;1.63;;;22.10;99.90;;;;;;5013170;28;20033;-40
2023/08/16 08:33:29;;;;;;;3.50;2.30;;;22.00;99.90;;;;;;5013339;28;20026;-36
2023/08/16 08:35:56;;;;;;;2.85;1.63;;;22.00;99.90;;;;;;5013376;28;20026;-43
2023/08/16 08:38:22;;;;;;;4.03;1.70;;;22.10;99.90;;;;;;4995542;28;20073;-37
2023/08/16 08:40:58;;;;;;;3.55;2.20;;;22.00;99.90;;;;;;5012993;28;20032;-39
2023/08/16 08:43:37;;;;;;;1.95;1.50;;;22.10;99.90;;;;;;5012955;28;20033;-40
2023/08/16 08:46:05;;;;;;;2.47;1.80;;;22.00;99.90;;;;;;5013244;28;20069;-40
2023/08/16 08:48:31;;;;;;;1.95;1.75;;;22.10;99.90;;;;;;5013055;28;20021;-40
2023/08/16 08:50:58;;;;;;;2.63;1.80;;;22.10;99.90;;;;;;5012941;28;20030;-39
2023/08/16 08:53:25;;;;;;;3.72;1.90;;;22.10;99.90;;;;;;5012924;28;20109;-39
2023/08/16 08:55:52;;;;;;;3.05;1.75;;;22.10;99.90;;;;;;5013095;28;20226;-43
2023/08/16 08:58:19;;;;;;;3.15;1.98;;;22.10;99.90;;;;;;5013073;28;20029;-42
2023/08/16 09:00:46;;;;;;;1.73;1.60;;;22.10;99.90;;;;;;5012798;28;20057;-41
2023/08/16 09:03:12;;;;;;;3.13;1.75;;;22.10;99.90;;;;;;5012668;28;20033;-42
2023/08/16 09:05:40;;;;;;;2.67;2.00;;;22.10;99.90;;;;;;5012796;28;20483;-36
2023/08/16 09:08:08;;;;;;;2.63;1.70;;;22.10;99.90;;;;;;5012679;28;20029;-37
2023/08/16 09:10:37;;;;;;;2.85;1.90;;;22.10;99.90;;;;;;5012547;28;20018;-44
2023/08/16 09:13:05;;;;;;;3.25;1.73;;;22.10;99.90;;;;;;5012692;28;20030;-40
2023/08/16 09:15:30;;;;;;;3.97;2.17;;;22.10;99.90;;;;;;5012609;28;20028;-46
2023/08/16 09:18:13;;;;;;;2.67;1.70;;;22.10;99.90;;;;;;5012423;28;20030;-37
2023/08/16 09:20:41;;;;;;;3.15;1.77;;;22.10;99.90;;;;;;5012297;28;20037;-37
2023/08/16 09:23:07;;;;;;;3.55;1.80;;;22.10;99.90;;;;;;5012536;28;20493;-39
2023/08/16 09:25:33;;;;;;;3.03;1.65;;;22.10;99.90;;;;;;5012504;28;20110;-39
2023/08/16 09:28:01;;;;;;;3.40;1.70;;;22.10;99.90;;;;;;5012408;28;20093;-43
2023/08/16 09:30:28;;;;;;;3.33;1.80;;;22.10;99.90;;;;;;5011872;28;20104;-44
2023/08/16 09:32:55;;;;;;;2.95;1.80;;;22.10;99.90;;;;;;5012312;28;20022;-40
2023/08/16 09:35:27;;;;;;;3.97;1.80;;;22.20;99.90;;;;;;5012242;28;20404;-39
2023/08/16 09:37:57;;;;;;;2.97;1.58;;;22.20;99.90;;;;;;4994688;28;20100;-44
2023/08/16 09:40:23;;;;;;;2.13;1.80;;;22.20;99.90;;;;;;5011898;28;20041;-41
2023/08/16 09:42:49;;;;;;;2.17;1.63;;;22.20;99.90;;;;;;5011955;28;20439;-38
2023/08/16 09:45:14;;;;;;;2.65;1.90;;;22.20;99.90;;;;;;5012103;28;20112;-38
2023/08/16 09:47:44;;;;;;;4.07;1.70;;;22.20;99.90;;;;;;5012103;28;20097;-37
2023/08/16 09:50:10;;;;;;;2.72;1.60;;;22.20;99.90;;;;;;5011882;28;20030;-39
2023/08/16 09:52:37;;;;;;;2.70;1.80;;;22.20;99.90;;;;;;5011920;28;20057;-38
2023/08/16 09:55:03;;;;;;;2.15;1.88;;;22.20;99.90;;;;;;5011491;28;20034;-38
2023/08/16 09:57:30;;;;;;;2.25;1.70;;;22.20;99.90;;;;;;5011863;28;20044;-40
2023/08/16 09:59:56;;;;;;;2.53;1.80;;;22.20;99.90;;;;;;5011600;28;20368;-38
2023/08/16 10:02:22;;;;;;;2.90;1.73;;;22.20;99.90;;;;;;5011744;28;20044;-41
2023/08/16 10:04:49;;;;;;;2.10;1.73;;;22.20;99.90;;;;;;5011789;28;20029;-41
2023/08/16 10:07:15;;;;;;;2.78;1.90;;;22.30;99.90;;;;;;4994105;28;20049;-37
2023/08/16 10:09:42;;;;;;;2.80;1.90;;;22.30;99.90;;;;;;5011558;28;20550;-40
2023/08/16 10:12:09;;;;;;;1.90;1.70;;;22.30;99.90;;;;;;5011680;28;20569;-40
2023/08/16 10:14:37;;;;;;;2.00;1.70;;;22.30;99.90;;;;;;5011689;28;20061;-45
2023/08/16 10:17:08;;;;;;;2.10;1.88;;;22.30;99.90;;;;;;5011740;28;20109;-45
2023/08/16 10:19:37;;;;;;;2.63;2.08;;;22.30;99.90;;;;;;5011420;28;20072;-38
2023/08/16 10:22:08;;;;;;;1.70;1.60;;;22.30;99.90;;;;;;5011533;28;20369;-36
2023/08/16 10:24:35;;;;;;;1.90;1.60;;;22.30;99.90;;;;;;5011795;28;20109;-40
2023/08/16 10:27:03;;;;;;;2.08;1.70;;;22.30;99.90;;;;;;5011727;28;20056;-42
2023/08/16 10:29:35;;;;;;;2.45;1.92;;;22.30;99.90;;;;;;5011277;28;20030;-41
2023/08/16 10:32:04;;;;;;;2.55;1.80;;;22.30;99.90;;;;;;5011533;28;20022;-39
2023/08/16 10:34:30;;;;;;;4.05;1.92;;;22.30;99.90;;;;;;5011544;28;20025;-37
2023/08/16 10:36:57;;;;;;;2.42;1.80;;;22.40;99.90;;;;;;5011389;28;20484;-37
2023/08/16 10:39:23;;;;;;;2.55;1.90;;;22.40;99.90;;;;;;5011214;28;20030;-41
2023/08/16 10:41:53;;;;;;;2.30;1.73;;;22.40;99.90;;;;;;5011521;28;20506;-40
2023/08/16 10:44:24;;;;;;;3.05;2.00;;;22.40;99.90;;;;;;5011650;28;20080;-39
2023/08/16 10:46:50;;;;;;;2.13;1.80;;;22.30;99.90;;;;;;5011343;28;20049;-39
2023/08/16 10:49:18;;;;;;;2.95;1.80;;;22.40;99.90;;;;;;5011023;28;20029;-42
2023/08/16 10:51:48;;;;;;;2.47;1.80;;;22.40;99.90;;;;;;5011192;28;20030;-41
2023/08/16 10:54:15;;;;;;;3.38;1.88;;;22.40;99.90;;;;;;5011267;28;20021;-39
2023/08/16 10:56:49;;;;;;;1.95;1.83;;;22.40;99.90;;;;;;5011347;28;20025;-39
2023/08/16 10:59:15;;;;;;;2.05;1.77;;;22.40;99.90;;;;;;5011122;28;20022;-38
2023/08/16 11:01:49;;;;;;;4.05;1.90;;;22.50;99.90;;;;;;5011425;28;20101;-38
2023/08/16 11:04:14;;;;;;;1.92;1.83;;;22.50;99.90;;;;;;5011213;28;20026;-37
2023/08/16 11:06:41;;;;;;;2.92;1.83;;;22.50;99.90;;;;;;5012231;28;20034;-38
2023/08/16 11:09:07;;;;;;;3.95;1.95;;;22.50;99.90;;;;;;5014705;28;20025;-38
2023/08/16 11:11:33;;;;;;;3.40;1.83;;;22.50;99.90;;;;;;5014950;28;20069;-38
2023/08/16 11:14:00;;;;;;;2.40;1.98;;;22.50;99.90;;;;;;5015269;28;20057;-42
2023/08/16 11:16:26;;;;;;;2.20;1.77;;;22.50;99.90;;;;;;5014839;28;20025;-40
2023/08/16 11:18:52;;;;;;;2.10;1.90;;;22.50;99.90;;;;;;5014708;28;20029;-38
2023/08/16 11:21:19;;;;;;;2.58;1.85;;;22.50;99.90;;;;;;5014699;28;20022;-42
2023/08/16 11:23:45;;;;;;;2.67;2.08;;;22.50;99.90;;;;;;5014588;28;20026;-40
2023/08/16 11:26:12;;;;;;;1.92;1.73;;;22.50;99.90;;;;;;5014801;28;20075;-36
2023/08/16 11:28:39;;;;;;;2.05;1.85;;;22.50;99.90;;;;;;5014710;28;20026;-39
2023/08/16 11:31:07;;;;;;;3.25;2.08;;;22.50;99.90;;;;;;5014173;28;20029;-43
2023/08/16 11:33:39;;;;;;;3.85;2.05;;;22.50;99.90;;;;;;5014616;28;20030;-36
2023/08/16 11:36:07;;;;;;;2.10;1.70;;;22.50;99.90;;;;;;5014517;28;20112;-36
2023/08/16 11:38:34;;;;;;;2.20;2.00;;;22.50;99.90;;;;;;5014585;28;20376;-43
2023/08/16 11:41:01;;;;;;;2.35;2.00;;;22.50;99.90;;;;;;5014123;28;20101;-38
2023/08/16 11:43:27;;;;;;;3.30;2.25;;;22.50;99.90;;;;;;5014310;28;20396;-38
2023/08/16 11:45:53;;;;;;;4.13;2.05;;;22.50;99.90;;;;;;5014280;28;20029;-40
2023/08/16 11:48:19;;;;;;;3.50;2.05;;;22.50;99.90;;;;;;5014421;28;20033;-38
2023/08/16 11:50:45;;;;;;;2.72;1.90;;;22.60;99.90;;;;;;5014143;28;20026;-38
2023/08/16 11:53:18;;;;;;;3.78;2.40;;;22.50;99.90;;;;;;5014107;28;20021;-37
2023/08/16 11:55:57;;;;;;;5.00;1.83;;;22.50;99.90;;;;;;5014266;28;20562;-42
2023/08/16 11:58:23;;;;;;;2.80;1.98;;;22.60;99.90;;;;;;5014078;28;20040;-46
2023/08/16 12:00:49;;;;;;;3.97;1.90;;;22.60;99.90;;;;;;5013986;28;20092;-40
2023/08/16 12:03:17;;;;;;;3.03;1.90;;;22.60;99.90;;;;;;5013820;28;20030;-39
2023/08/16 12:05:49;;;;;;;2.22;2.00;;;22.60;99.90;;;;;;5014013;28;20049;-39
2023/08/16 12:08:20;;;;;;;3.53;2.20;;;22.60;99.90;;;;;;5013905;28;20527;-39
2023/08/16 12:10:56;;;;;;;2.42;2.20;;;22.60;99.90;;;;;;5013556;28;20463;-40
2023/08/16 12:13:23;;;;;;;2.60;1.90;;;22.60;99.90;;;;;;5013776;28;20030;-38
2023/08/16 12:15:50;;;;;;;2.50;2.30;;;22.60;99.90;;;;;;5013730;28;20030;-42
2023/08/16 12:18:17;;;;;;;2.83;2.03;;;22.60;99.90;;;;;;5013135;28;20030;-38
2023/08/16 12:20:49;;;;;;;3.13;2.25;;;22.60;99.90;;;;;;5013380;28;20030;-41
2023/08/16 12:23:17;;;;;;;2.95;2.03;;;22.60;99.90;;;;;;5013472;28;20030;-41
2023/08/16 12:25:43;;;;;;;2.33;1.95;;;22.60;99.90;;;;;;5013769;28;20022;-35
2023/08/16 12:28:08;;;;;;;2.30;2.05;;;22.60;99.90;;;;;;5013557;28;20022;-41
2023/08/16 12:30:34;;;;;;;3.08;2.05;;;22.60;99.90;;;;;;5013157;28;20470;-40
2023/08/16 12:33:00;;;;;;;5.07;2.00;;;22.60;99.90;;;;;;5013417;28;20029;-39
2023/08/16 12:35:25;;;;;;;2.55;1.88;;;22.60;99.90;;;;;;5013584;28;20105;-40
2023/08/16 12:37:51;;;;;;;3.35;2.40;;;22.60;99.90;;;;;;5013342;28;20434;-37
2023/08/16 12:40:16;;;;;;;2.60;1.98;;;22.60;99.90;;;;;;5013068;28;20018;-41
2023/08/16 12:42:42;;;;;;;3.15;2.25;;;22.60;99.90;;;;;;5013215;28;20121;-40
2023/08/16 12:45:09;;;;;;;2.47;2.10;;;22.60;99.90;;;;;;5013277;28;20057;-39